Time;durP1;ratioP1;P1;durP2;ratioP2;P2;SDS_P1;SDS_P2;PMS_P1;PMS_P2;Temp;Humidity;BMP_temperature;BMP_pressure;BME280_temperature;BME280_humidity;BME280_pressure;Samples;Min_cycle;Max_cycle;Signal;HPM_P1;HPM_P2
2023/05/07 00:00:48;;;;;;;24.52;20.15;;;;;;;;;;6219505;23;20386;-75
2023/05/07 00:03:14;;;;;;;27.88;19.13;;;;;;;;;;6167810;23;20755;-75
2023/05/07 00:05:41;;;;;;;25.08;19.35;;;;;;;;;;6219142;23;20692;-75
2023/05/07 00:08:07;;;;;;;23.92;19.08;;;;;;;;;;6220049;23;20441;-76
2023/05/07 00:10:33;;;;;;;28.23;19.17;;;;;;;;;;6220214;23;20365;-77
2023/05/07 00:12:59;;;;;;;26.67;19.77;;;;;;;;;;6194133;23;20373;-76
2023/05/07 00:15:25;;;;;;;24.85;18.98;;;;;;;;;;6195421;23;20398;-76
2023/05/07 00:17:51;;;;;;;26.98;20.30;;;;;;;;;;6220765;23;20370;-75
2023/05/07 00:20:17;;;;;;;26.77;20.13;;;;;;;;;;6220152;23;20396;-75
2023/05/07 00:22:43;;;;;;;26.33;20.95;;;;;;;;;;6195075;23;20465;-76
2023/05/07 00:25:10;;;;;;;27.27;20.10;;;;;;;;;;6220016;23;20428;-75
2023/05/07 00:27:36;;;;;;;27.87;20.10;;;;;;;;;;6219245;23;20732;-75
2023/05/07 00:30:02;;;;;;;25.60;20.00;;;;;;;;;;6219781;23;20362;-75
2023/05/07 00:32:28;;;;;;;28.88;21.15;;;;;;;;;;6220524;23;20370;-76
2023/05/07 00:34:54;;;;;;;28.95;21.05;;;;;;;;;;6193691;23;20366;-76
2023/05/07 00:37:20;;;;;;;28.88;20.67;;;;;;;;;;6194395;23;20366;-75
2023/05/07 00:39:46;;;;;;;28.27;21.55;;;;;;;;;;6218380;23;20370;-75
2023/05/07 00:42:12;;;;;;;27.70;21.27;;;;;;;;;;6194887;23;20404;-75
2023/05/07 00:44:38;;;;;;;29.73;22.02;;;;;;;;;;6194363;23;20443;-75
2023/05/07 00:47:05;;;;;;;29.97;21.73;;;;;;;;;;6193982;23;20365;-75
2023/05/07 00:49:36;;;;;;;29.85;23.48;;;;;;;;;;6218580;23;20428;-75
2023/05/07 00:52:04;;;;;;;30.60;23.33;;;;;;;;;;6218158;23;20843;-76
2023/05/07 00:54:30;;;;;;;33.88;23.63;;;;;;;;;;6217899;23;20382;-75
2023/05/07 00:56:56;;;;;;;30.73;23.77;;;;;;;;;;6193995;23;20376;-75
2023/05/07 00:59:22;;;;;;;34.53;24.02;;;;;;;;;;6217873;23;20390;-75
2023/05/07 01:01:48;;;;;;;34.03;24.30;;;;;;;;;;6218552;23;20370;-76
2023/05/07 01:04:14;;;;;;;35.83;24.67;;;;;;;;;;6193694;23;20418;-76
2023/05/07 01:06:41;;;;;;;33.50;24.63;;;;;;;;;;6219482;23;20369;-76
2023/05/07 01:09:09;;;;;;;34.13;25.00;;;;;;;;;;6218616;23;20421;-76
2023/05/07 01:11:35;;;;;;;34.38;26.50;;;;;;;;;;6192761;23;20401;-75
2023/05/07 01:14:01;;;;;;;33.70;25.85;;;;;;;;;;6246496;23;20739;-76
2023/05/07 01:16:27;;;;;;;35.78;25.73;;;;;;;;;;6219577;23;20404;-76
2023/05/07 01:18:53;;;;;;;33.28;25.98;;;;;;;;;;6193271;23;20508;-76
2023/05/07 01:21:26;;;;;;;39.90;27.53;;;12.40;99.90;;;;;;6216861;23;20373;-75
2023/05/07 01:23:52;;;;;;;35.70;26.17;;;;;;;;;;6217847;23;20452;-75
2023/05/07 01:26:19;;;;;;;36.05;26.20;;;;;;;;;;6218125;23;20440;-76
2023/05/07 01:28:45;;;;;;;36.42;26.45;;;;;;;;;;6193999;23;20412;-76
2023/05/07 01:31:13;;;;;;;35.65;26.88;;;12.40;99.90;;;;;;6193571;23;20423;-76
2023/05/07 01:33:41;;;;;;;39.63;28.23;;;12.10;99.90;;;;;;6218964;23;20370;-76
2023/05/07 01:36:08;;;;;;;37.88;28.02;;;12.10;99.90;;;;;;6218104;23;20373;-77
2023/05/07 01:38:36;;;;;;;39.30;29.13;;;12.40;99.90;;;;;;6192983;23;20394;-76
2023/05/07 01:41:02;;;;;;;38.17;28.98;;;;;;;;;;6219288;23;20354;-76
2023/05/07 01:43:29;;;;;;;39.30;28.90;;;;;;;;;;6193724;23;20385;-75
2023/05/07 01:45:57;;;;;;;43.10;29.67;;;12.10;99.90;;;;;;6217788;23;20840;-77
2023/05/07 01:48:23;;;;;;;39.92;30.20;;;;;;;;;;6218204;23;20362;-76
2023/05/07 01:50:49;;;;;;;39.83;29.67;;;;;;;;;;6217436;23;20740;-77
2023/05/07 01:53:15;;;;;;;41.60;30.33;;;;;;;;;;6217939;23;20365;-76
2023/05/07 01:55:41;;;;;;;40.80;30.25;;;;;;;;;;6193819;23;20377;-76
2023/05/07 01:58:07;;;;;;;41.30;29.87;;;;;;;;;;6217418;23;20840;-76
2023/05/07 02:00:33;;;;;;;41.45;31.15;;;;;;;;;;6216608;23;20787;-76
2023/05/07 02:03:00;;;;;;;41.53;30.88;;;;;;;;;;6218263;23;20416;-76
2023/05/07 02:05:26;;;;;;;41.08;30.75;;;;;;;;;;6218254;23;20372;-76
2023/05/07 02:07:52;;;;;;;41.30;30.83;;;;;;;;;;6217690;23;20365;-76
2023/05/07 02:10:18;;;;;;;44.15;30.05;;;;;;;;;;6217423;23;20373;-76
2023/05/07 02:12:44;;;;;;;42.95;30.17;;;;;;;;;;6192168;23;20377;-76
2023/05/07 02:15:10;;;;;;;40.85;29.38;;;;;;;;;;6216847;23;20444;-76
2023/05/07 02:17:38;;;;;;;40.63;30.50;;;;;;;;;;6192372;23;20362;-74
2023/05/07 02:20:05;;;;;;;42.53;30.77;;;;;;;;;;6192190;23;20369;-75
2023/05/07 02:22:33;;;;;;;39.53;30.07;;;;;;;;;;6217766;23;20376;-75
2023/05/07 02:24:59;;;;;;;39.95;30.00;;;;;;;;;;6220565;23;20370;-75
2023/05/07 02:27:25;;;;;;;42.13;30.63;;;;;;;;;;6220016;23;20373;-76
2023/05/07 02:29:51;;;;;;;41.80;32.05;;;;;;;;;;6219362;23;20960;-75
2023/05/07 02:32:17;;;;;;;43.20;31.05;;;;;;;;;;6194082;23;20349;-76
2023/05/07 02:34:43;;;;;;;44.28;31.52;;;;;;;;;;6219767;23;20424;-77
2023/05/07 02:37:09;;;;;;;43.50;31.87;;;;;;;;;;6220228;23;20373;-76
2023/05/07 02:39:36;;;;;;;44.15;30.85;;;;;;;;;;6219309;23;20365;-75
2023/05/07 02:42:03;;;;;;;42.05;32.42;;;;;;;;;;6193462;23;20366;-76
2023/05/07 02:44:31;;;;;;;41.83;32.42;;;;;;;;;;6219085;23;20856;-76
2023/05/07 02:46:57;;;;;;;43.08;33.50;;;;;;;;;;6218914;23;20365;-77
2023/05/07 02:49:23;;;;;;;46.83;32.75;;;;;;;;;;6193852;23;20441;-76
2023/05/07 02:51:49;;;;;;;43.17;32.63;;;;;;;;;;6217728;23;20421;-76
2023/05/07 02:54:15;;;;;;;43.35;32.50;;;;;;;;;;6218932;23;20384;-77
2023/05/07 02:56:41;;;;;;;44.47;32.10;;;;;;;;;;6218626;23;20427;-75
2023/05/07 02:59:07;;;;;;;46.00;32.40;;;;;;;;;;6217614;23;20385;-75
2023/05/07 03:01:33;;;;;;;47.00;33.55;;;;;;;;;;6218225;23;20440;-75
2023/05/07 03:03:59;;;;;;;43.72;32.58;;;;;;;;;;6217599;23;20401;-76
2023/05/07 03:06:25;;;;;;;44.47;33.53;;;;;;;;;;6218637;23;20366;-76
2023/05/07 03:08:52;;;;;;;44.72;33.90;;;;;;;;;;6193762;23;20825;-76
2023/05/07 03:11:18;;;;;;;45.10;31.80;;;;;;;;;;6192556;23;20366;-76
2023/05/07 03:13:44;;;;;;;46.93;33.77;;;;;;;;;;6218478;23;20432;-77
2023/05/07 03:16:10;;;;;;;45.90;32.45;;;;;;;;;;6219438;23;20365;-76
2023/05/07 03:18:36;;;;;;;46.38;35.60;;;;;;;;;;6218748;23;20370;-76
2023/05/07 03:21:02;;;;;;;49.85;33.58;;;;;;;;;;6193339;23;20431;-76
2023/05/07 03:23:28;;;;;;;47.53;34.63;;;;;;;;;;6217359;23;20385;-76
2023/05/07 03:25:54;;;;;;;48.38;35.20;;;;;;;;;;6191527;23;20942;-75
2023/05/07 03:28:20;;;;;;;47.70;35.08;;;;;;;;;;6217809;23;20366;-76
2023/05/07 03:30:46;;;;;;;48.63;35.03;;;;;;;;;;6219349;23;20361;-76
2023/05/07 03:33:12;;;;;;;52.22;34.97;;;;;;;;;;6220056;23;20397;-76
2023/05/07 03:35:38;;;;;;;51.78;34.97;;;;;;;;;;6219014;23;20374;-76
2023/05/07 03:38:04;;;;;;;53.17;36.53;;;;;;;;;;6220338;23;20398;-75
2023/05/07 03:40:30;;;;;;;51.80;35.10;;;;;;;;;;6194983;23;20373;-75
2023/05/07 03:42:56;;;;;;;52.83;37.97;;;;;;;;;;6193794;23;20715;-77
2023/05/07 03:45:23;;;;;;;52.08;36.47;;;;;;;;;;6220082;23;20436;-76
2023/05/07 03:47:49;;;;;;;52.65;36.15;;;;;;;;;;6195323;23;20365;-76
2023/05/07 03:50:15;;;;;;;56.23;37.73;;;;;;;;;;6220659;23;20682;-75
2023/05/07 03:52:41;;;;;;;53.38;35.53;;;;;;;;;;6193496;23;20373;-77
2023/05/07 03:55:07;;;;;;;54.75;37.38;;;;;;;;;;6194420;23;20681;-77
2023/05/07 03:57:33;;;;;;;55.53;38.55;;;;;;;;;;6192831;23;20393;-77
2023/05/07 03:59:59;;;;;;;56.90;37.10;;;;;;;;;;6246329;23;20412;-77
2023/05/07 04:02:25;;;;;;;57.35;37.22;;;;;;;;;;6219167;23;20445;-77
2023/05/07 04:04:52;;;;;;;59.13;37.87;;;11.20;99.90;;;;;;6219914;23;20392;-77
2023/05/07 04:07:18;;;;;;;61.53;40.40;;;;;;;;;;6219860;23;20694;-77
2023/05/07 04:09:44;;;;;;;60.15;38.67;;;;;;;;;;6218990;23;20365;-76
2023/05/07 04:12:10;;;;;;;63.05;39.70;;;;;;;;;;6193209;23;20362;-76
2023/05/07 04:14:36;;;;;;;63.33;39.60;;;;;;;;;;6194394;23;20372;-77
2023/05/07 04:17:02;;;;;;;62.33;39.80;;;;;;;;;;6219444;23;20424;-76
2023/05/07 04:19:28;;;;;;;64.53;38.83;;;;;;;;;;6219758;23;20370;-77
2023/05/07 04:21:54;;;;;;;65.70;41.28;;;;;;;;;;6219097;23;20512;-77
2023/05/07 04:24:20;;;;;;;62.88;40.65;;;;;;;;;;6194464;23;20394;-77
2023/05/07 04:26:46;;;;;;;64.57;40.00;;;;;;;;;;6219565;23;20441;-77
2023/05/07 04:29:12;;;;;;;64.57;39.55;;;;;;;;;;6219681;23;20854;-77
2023/05/07 04:31:39;;;;;;;63.65;39.75;;;;;;;;;;6218959;23;20840;-77
2023/05/07 04:34:05;;;;;;;66.30;40.08;;;;;;;;;;6219819;23;20377;-73
2023/05/07 04:36:33;;;;;;;63.05;40.05;;;;;;;;;;6219238;23;20366;-75
2023/05/07 04:38:59;;;;;;;60.87;40.10;;;;;;;;;;6219715;23;20390;-75
2023/05/07 04:41:25;;;;;;;64.97;40.97;;;;;;;;;;6217941;23;20420;-74
2023/05/07 04:43:51;;;;;;;67.07;41.08;;;;;;;;;;6218867;23;20386;-74
2023/05/07 04:46:17;;;;;;;58.63;39.70;;;;;;;;;;6245698;23;20444;-74
2023/05/07 04:48:43;;;;;;;62.47;40.60;;;;;;;;;;6245138;23;20365;-74
2023/05/07 04:51:09;;;;;;;59.22;39.35;;;;;;;;;;6244969;23;20361;-75
2023/05/07 04:53:35;;;;;;;60.97;39.15;;;;;;;;;;6217584;23;20377;-75
2023/05/07 04:56:01;;;;;;;59.75;38.78;;;;;;;;;;6245340;23;20898;-74
2023/05/07 04:58:31;;;;;;;59.42;37.83;;;;;;;;;;6217674;23;20362;-75
2023/05/07 05:00:57;;;;;;;56.58;40.30;;;;;;;;;;6245709;23;20424;-74
2023/05/07 05:03:23;;;;;;;57.25;38.08;;;;;;;;;;6218566;23;20435;-74
2023/05/07 05:05:50;;;;;;;56.10;37.30;;;;;;;;;;6245969;23;20436;-74
2023/05/07 05:08:16;;;;;;;54.88;38.70;;;;;;;;;;6244107;23;21121;-74
2023/05/07 05:10:43;;;;;;;53.72;37.15;;;;;;;;;;6245735;23;20411;-74
2023/05/07 05:13:09;;;;;;;55.60;36.72;;;;;;;;;;6193168;23;20723;-74
2023/05/07 05:15:35;;;;;;;54.17;36.05;;;;;;;;;;6218511;23;20374;-74
2023/05/07 05:18:02;;;;;;;53.45;35.63;;;;;;;;;;6193871;23;20420;-74
2023/05/07 05:20:28;;;;;;;51.05;36.00;;;;;;;;;;6219089;23;20847;-74
2023/05/07 05:22:54;;;;;;;51.22;37.13;;;;;;;;;;6244412;23;20921;-74
2023/05/07 05:25:20;;;;;;;52.38;36.38;;;;;;;;;;6191977;23;20401;-74
2023/05/07 05:27:46;;;;;;;53.20;36.90;;;;;;;;;;6246089;23;20358;-74
2023/05/07 05:30:12;;;;;;;54.10;35.13;;;;;;;;;;6193795;23;20362;-74
2023/05/07 05:32:38;;;;;;;62.03;38.15;;;;;;;;;;6244478;23;20358;-74
2023/05/07 05:35:05;;;;;;;55.58;37.72;;;;;;;;;;6245222;23;20358;-74
2023/05/07 05:37:31;;;;;;;52.13;35.28;;;;;;;;;;6244801;23;20424;-75
2023/05/07 05:39:57;;;;;;;73.00;37.53;;;;;;;;;;6245108;23;20354;-74
2023/05/07 05:42:23;;;;;;;48.50;34.53;;;;;;;;;;6218069;23;20354;-73
2023/05/07 05:44:49;;;;;;;51.83;37.47;;;;;;;;;;6245534;23;20386;-74
2023/05/07 05:47:16;;;;;;;52.33;35.03;;;;;;;;;;6218755;23;20456;-74
2023/05/07 05:49:43;;;;;;;47.95;34.42;;;;;;;;;;6245363;23;20346;-74
2023/05/07 05:52:09;;;;;;;46.22;34.40;;;;;;;;;;6245208;23;20389;-74
2023/05/07 05:54:35;;;;;;;44.22;31.98;;;;;;;;;;6217475;23;20840;-74
2023/05/07 05:57:03;;;;;;;45.27;31.47;;;;;;;;;;6243924;23;20413;-73
2023/05/07 05:59:30;;;;;;;47.63;32.20;;;;;;;;;;6217047;23;20377;-74
2023/05/07 06:01:56;;;;;;;44.00;32.20;;;;;;;;;;6215919;23;20393;-73
2023/05/07 06:04:22;;;;;;;43.28;31.52;;;;;;;;;;6244920;23;20382;-74
2023/05/07 06:06:48;;;;;;;41.00;30.43;;;;;;;;;;6218639;23;20368;-74
2023/05/07 06:09:14;;;;;;;42.63;30.92;;;;;;;;;;6244478;23;20361;-74
2023/05/07 06:11:40;;;;;;;40.85;30.02;;;;;;;;;;6215484;23;20374;-74
2023/05/07 06:14:07;;;;;;;39.33;29.58;;;;;;;;;;6244076;23;20369;-74
2023/05/07 06:16:33;;;;;;;37.25;29.30;;;;;;;;;;6192475;23;20370;-74
2023/05/07 06:18:59;;;;;;;38.42;29.20;;;;;;;;;;6216642;23;20401;-75
2023/05/07 06:21:25;;;;;;;38.42;28.48;;;;;;;;;;6214450;23;20432;-75
2023/05/07 06:23:52;;;;;;;39.83;29.13;;;;;;;;;;6189969;23;20693;-75
2023/05/07 06:26:18;;;;;;;35.60;28.35;;;;;;;;;;6216073;23;20370;-74
2023/05/07 06:28:44;;;;;;;36.90;28.98;;;;;;;;;;6242860;23;20358;-73
2023/05/07 06:31:17;;;;;;;37.55;27.88;;;;;;;;;;6215583;23;20404;-74
2023/05/07 06:33:43;;;;;;;35.83;27.70;;;;;;;;;;6241590;23;20443;-74
2023/05/07 06:36:10;;;;;;;39.22;27.77;;;;;;;;;;6214214;23;20376;-74
2023/05/07 06:38:36;;;;;;;36.30;27.50;;;;;;;;;;6216693;23;20358;-75
2023/05/07 06:41:02;;;;;;;37.03;27.20;;;;;;;;;;6189642;23;20483;-77
2023/05/07 06:43:28;;;;;;;37.28;27.40;;;;;;;;;;6215267;23;20385;-76
2023/05/07 06:45:54;;;;;;;34.40;27.13;;;;;;;;;;6215989;23;20387;-75
2023/05/07 06:48:20;;;;;;;35.67;27.00;;;;;;;;;;6241224;23;20369;-75
2023/05/07 06:50:46;;;;;;;33.80;28.25;;;;;;;;;;6214000;23;20642;-75
2023/05/07 06:53:12;;;;;;;35.45;26.98;;;;;;;;;;6188303;23;20674;-75
2023/05/07 06:55:39;;;;;;;33.38;25.50;;;;;;;;;;6243255;23;20369;-74
2023/05/07 06:58:05;;;;;;;33.50;25.92;;;;;;;;;;6242794;23;20855;-75
2023/05/07 07:00:31;;;;;;;36.78;26.63;;;;;;;;;;6213024;23;20382;-75
2023/05/07 07:02:59;;;;;;;33.72;26.45;;;;;;;;;;6188616;23;20448;-75
2023/05/07 07:05:25;;;;;;;32.95;26.23;;;;;;;;;;6214776;23;20369;-74
2023/05/07 07:07:54;;;;;;;34.08;27.02;;;;;;;;;;6215326;23;20437;-74
2023/05/07 07:10:20;;;;;;;32.22;24.85;;;;;;;;;;6245046;23;20369;-75
2023/05/07 07:12:46;;;;;;;33.22;25.20;;;;;;;;;;6217204;23;20362;-75
2023/05/07 07:15:13;;;;;;;34.08;25.90;;;12.10;99.90;;;;;;6193315;23;20492;-75
2023/05/07 07:17:39;;;;;;;33.05;26.80;;;;;;;;;;6216985;23;20366;-75
2023/05/07 07:20:05;;;;;;;31.25;24.77;;;;;;;;;;6218174;23;20380;-75
2023/05/07 07:22:32;;;;;;;30.70;26.05;;;;;;;;;;6217469;23;20366;-73
2023/05/07 07:24:58;;;;;;;35.70;25.23;;;;;;;;;;6192728;23;20862;-73
2023/05/07 07:27:24;;;;;;;30.13;25.15;;;;;;;;;;6241729;23;20386;-74
2023/05/07 07:29:50;;;;;;;32.85;25.48;;;;;;;;;;6215865;23;20836;-74
2023/05/07 07:32:16;;;;;;;32.38;25.45;;;;;;;;;;6242443;23;20362;-74
2023/05/07 07:34:42;;;;;;;30.77;25.02;;;;;;;;;;6243751;23;20362;-74
2023/05/07 07:37:08;;;;;;;32.50;26.40;;;;;;;;;;6191334;23;20371;-74
2023/05/07 07:39:35;;;;;;;30.70;25.60;;;;;;;;;;6244768;23;20362;-74
2023/05/07 07:42:01;;;;;;;30.35;25.13;;;;;;;;;;6190123;23;20369;-74
2023/05/07 07:44:28;;;;;;;33.85;26.27;;;;;;;;;;6188579;23;20397;-74
2023/05/07 07:46:54;;;;;;;31.42;25.30;;;;;;;;;;6244154;23;20358;-75
2023/05/07 07:49:20;;;;;;;31.35;24.83;;;;;;;;;;6244340;23;20354;-74
2023/05/07 07:51:46;;;;;;;30.92;26.50;;;;;;;;;;6243330;23;20361;-74
2023/05/07 07:54:13;;;;;;;30.23;25.67;;;;;;;;;;6192383;23;20436;-74
2023/05/07 07:56:39;;;;;;;31.52;25.35;;;;;;;;;;6244238;23;20982;-74
2023/05/07 07:59:05;;;;;;;32.00;27.58;;;;;;;;;;6217562;23;20370;-75
2023/05/07 08:01:31;;;;;;;31.48;25.98;;;;;;;;;;6191517;23;20407;-74
2023/05/07 08:04:02;;;;;;;36.67;26.98;;;;;;;;;;6191835;23;20442;-75
2023/05/07 08:06:29;;;;;;;34.00;27.98;;;;;;;;;;6216878;23;20362;-75
2023/05/07 08:08:55;;;;;;;33.60;26.20;;;;;;;;;;6217272;23;20366;-76
2023/05/07 08:11:21;;;;;;;32.42;25.88;;;;;;;;;;6215194;23;20684;-76
2023/05/07 08:13:47;;;;;;;32.78;26.13;;;;;;;;;;6190410;23;20453;-75
2023/05/07 08:16:14;;;;;;;32.80;25.88;;;;;;;;;;6215339;23;20902;-75
2023/05/07 08:18:40;;;;;;;30.95;26.20;;;;;;;;;;6215471;23;20759;-75
2023/05/07 08:21:06;;;;;;;31.23;25.83;;;;;;;;;;6216179;23;20688;-75
2023/05/07 08:23:34;;;;;;;30.27;24.63;;;;;;;;;;6211676;23;20386;-75
2023/05/07 08:26:00;;;;;;;32.47;25.40;;;;;;;;;;6192193;23;20444;-75
2023/05/07 08:28:26;;;;;;;32.88;25.63;;;;;;;;;;6191743;23;20397;-76
2023/05/07 08:30:52;;;;;;;35.38;25.63;;;;;;;;;;6241272;23;20449;-75
2023/05/07 08:33:18;;;;;;;32.17;26.20;;;;;;;;;;6216066;23;20398;-75
2023/05/07 08:35:44;;;;;;;34.75;26.30;;;;;;;;;;6215671;23;20365;-76
2023/05/07 08:38:10;;;;;;;32.53;25.83;;;;;;;;;;6243385;23;20911;-74
2023/05/07 08:40:43;;;;;;;30.27;24.52;;;;;;;;;;6217601;23;20843;-74
2023/05/07 08:43:12;;;;;;;32.40;27.25;;;;;;;;;;6216420;23;20443;-74
2023/05/07 08:45:40;;;;;;;33.47;27.02;;;;;;;;;;6217017;23;20824;-74
2023/05/07 08:48:09;;;;;;;33.42;26.73;;;;;;;;;;6244045;23;20369;-75
2023/05/07 08:50:36;;;;;;;32.42;25.95;;;;;;;;;;6216419;23;20432;-76
2023/05/07 08:53:05;;;;;;;32.05;24.60;;;;;;;;;;6190004;23;20369;-76
2023/05/07 08:55:33;;;;;;;29.58;25.42;;;;;;;;;;6216006;23;20828;-75
2023/05/07 08:57:59;;;;;;;30.63;24.10;;;;;;;;;;6216283;23;20366;-74
2023/05/07 09:00:25;;;;;;;31.17;24.05;;;;;;;;;;6215454;23;20435;-76
2023/05/07 09:02:52;;;;;;;33.95;25.30;;;13.50;99.90;;;;;;6190886;23;20366;-75
2023/05/07 09:05:19;;;;;;;32.45;24.73;;;;;;;;;;6214871;23;20440;-74
2023/05/07 09:07:46;;;;;;;32.72;26.23;;;;;;;;;;6213988;23;20354;-75
2023/05/07 09:10:12;;;;;;;28.38;25.02;;;;;;;;;;6189977;23;20373;-75
2023/05/07 09:12:39;;;;;;;30.75;24.50;;;;;;;;;;6213924;23;20373;-76
2023/05/07 09:15:05;;;;;;;32.38;25.05;;;;;;;;;;6215683;23;20361;-74
2023/05/07 09:17:31;;;;;;;31.57;24.23;;;;;;;;;;6215292;23;20362;-75
2023/05/07 09:20:03;;;;;;;30.48;24.50;;;;;;;;;;6212196;23;20397;-74
2023/05/07 09:22:32;;;;;;;33.33;25.30;;;;;;;;;;6211188;23;20370;-74
2023/05/07 09:24:58;;;;;;;30.42;24.10;;;;;;;;;;6188603;23;20394;-75
2023/05/07 09:27:24;;;;;;;30.07;25.97;;;;;;;;;;6190339;23;20370;-73
2023/05/07 09:29:51;;;;;;;30.50;25.60;;;;;;;;;;6191317;23;20924;-74
2023/05/07 09:32:17;;;;;;;29.92;24.15;;;;;;;;;;6218357;23;20361;-74
2023/05/07 09:34:43;;;;;;;30.05;24.40;;;;;;;;;;6215989;23;20381;-74
2023/05/07 09:37:09;;;;;;;31.45;23.83;;;;;;;;;;6215017;23;20405;-76
2023/05/07 09:39:49;;;;;;;29.05;24.65;;;14.20;99.90;;;;;;6216208;23;20370;-75
2023/05/07 09:42:15;;;;;;;29.88;23.88;;;;;;;;;;6213508;23;20377;-74
2023/05/07 09:44:44;;;;;;;31.35;25.05;;;;;;;;;;6193233;23;20734;-73
2023/05/07 09:47:11;;;;;;;32.63;25.33;;;;;;;;;;6217450;23;21251;-75
2023/05/07 09:49:39;;;;;;;31.23;25.08;;;14.10;99.90;;;;;;6214943;23;20377;-75
2023/05/07 09:52:08;;;;;;;31.08;23.55;;;14.30;99.90;;;;;;6214148;23;20444;-73
2023/05/07 09:54:34;;;;;;;28.52;23.98;;;;;;;;;;6189219;23;20847;-74
2023/05/07 09:57:02;;;;;;;28.92;23.17;;;;;;;;;;6213575;23;20377;-74
2023/05/07 09:59:31;;;;;;;29.25;23.88;;;14.60;99.90;;;;;;6215487;23;20420;-75
2023/05/07 10:01:58;;;;;;;30.67;24.73;;;;;;;;;;6214037;23;20859;-74
2023/05/07 10:04:26;;;;;;;29.67;23.38;;;;;;;;;;6236533;23;20408;-75
2023/05/07 10:06:53;;;;;;;28.27;23.33;;;;;;;;;;6214621;23;20828;-75
2023/05/07 10:09:20;;;;;;;28.65;23.35;;;14.40;99.90;;;;;;6216669;23;20369;-76
2023/05/07 10:11:46;;;;;;;29.00;23.60;;;;;;;;;;6191123;23;20432;-76
2023/05/07 10:14:12;;;;;;;30.27;24.57;;;;;;;;;;6190838;23;20458;-76
2023/05/07 10:16:39;;;;;;;27.98;22.08;;;;;;;;;;6191594;23;20769;-77
2023/05/07 10:19:06;;;;;;;27.37;22.97;;;;;;;;;;6189964;23;20704;-76
2023/05/07 10:21:36;;;;;;;27.23;21.23;;;15.10;99.90;;;;;;6214713;23;20366;-76
2023/05/07 10:24:17;;;;;;;26.20;22.67;;;;;;;;;;6190165;23;20393;-76
2023/05/07 10:26:45;;;;;;;26.17;22.02;;;14.90;99.90;;;;;;6216060;23;20440;-75
2023/05/07 10:29:30;;;;;;;26.60;22.30;;;;;;;;;;6215220;23;20362;-75
2023/05/07 10:32:00;;;;;;;25.27;22.05;;;;;;;;;;6213941;23;20358;-75
2023/05/07 10:34:33;;;;;;;25.85;22.58;;;;;;;;;;6214715;23;20365;-75
2023/05/07 10:36:59;;;;;;;24.27;21.73;;;;;;;;;;6190065;23;20366;-75
2023/05/07 10:39:25;;;;;;;25.95;21.80;;;;;;;;;;6190729;23;20374;-75
2023/05/07 10:41:51;;;;;;;24.42;19.77;;;;;;;;;;6216526;23;20358;-76
2023/05/07 10:44:30;;;;;;;24.27;19.88;;;;;;;;;;6189695;23;20447;-76
2023/05/07 10:47:05;;;;;;;25.83;20.60;;;;;;;;;;6192163;23;20688;-76
2023/05/07 10:49:31;;;;;;;23.77;20.50;;;;;;;;;;6218169;23;20445;-76
2023/05/07 10:52:18;;;;;;;22.48;19.77;;;16.40;99.90;;;;;;6215772;23;20362;-75
2023/05/07 10:54:44;;;;;;;24.05;21.45;;;;;;;;;;6189182;23;20883;-76
2023/05/07 10:57:36;;;;;;;25.85;20.35;;;;;;;;;;6216341;23;20377;-76
2023/05/07 11:00:23;;;;;;;22.65;19.35;;;;;;;;;;6173783;23;20394;-76
2023/05/07 11:03:01;;;;;;;24.10;20.77;;;;;;;;;;6192314;23;20372;-76
2023/05/07 11:05:29;;;;;;;23.98;19.55;;;;;;;;;;6192951;23;20916;-76
2023/05/07 11:07:58;;;;;;;23.75;19.58;;;;;;;;;;6191875;23;20362;-77
2023/05/07 11:10:44;;;;;;;23.10;20.10;;;;;;;;;;6193417;23;20372;-77
2023/05/07 11:13:10;;;;;;;21.48;19.23;;;;;;;;;;6193058;23;20361;-77
2023/05/07 11:15:37;;;;;;;22.45;20.05;;;;;;;;;;6193413;23;20394;-77
2023/05/07 11:18:03;;;;;;;22.95;19.88;;;;;;;;;;6218079;23;20445;-78
2023/05/07 11:20:43;;;;;;;22.05;19.23;;;;;;;;;;6191700;23;20365;-76
2023/05/07 11:23:35;;;;;;;21.03;18.80;;;16.90;99.90;;;;;;6189322;23;20890;-76
2023/05/07 11:26:05;;;;;;;22.52;20.13;;;;;;;;;;6146292;23;20994;-76
2023/05/07 11:28:37;;;;;;;22.55;18.95;;;17.20;99.90;;;;;;6218472;23;20405;-76
2023/05/07 11:31:03;;;;;;;22.13;19.70;;;;;;;;;;6216602;23;20696;-76
2023/05/07 11:33:30;;;;;;;21.80;18.45;;;;;;;;;;6191639;23;20378;-75
2023/05/07 11:35:57;;;;;;;21.58;19.27;;;;;;;;;;6214659;23;20938;-76
2023/05/07 11:38:23;;;;;;;21.77;19.35;;;;;;;;;;6191771;23;20428;-76
2023/05/07 11:40:51;;;;;;;22.15;19.50;;;17.00;99.90;;;;;;6218981;23;20680;-76
2023/05/07 11:43:17;;;;;;;21.27;18.80;;;;;;;;;;6213799;23;20440;-77
2023/05/07 11:45:43;;;;;;;21.42;18.92;;;;;;;;;;6217258;23;20362;-76
2023/05/07 11:48:09;;;;;;;23.65;18.98;;;;;;;;;;6214351;23;20839;-76
2023/05/07 11:50:35;;;;;;;20.65;18.45;;;;;;;;;;6190849;23;20368;-76
2023/05/07 11:53:07;;;;;;;20.55;18.35;;;17.60;99.90;;;;;;6218336;23;20373;-76
2023/05/07 11:55:34;;;;;;;20.88;18.67;;;;;;;;;;6166300;23;20827;-77
2023/05/07 11:58:00;;;;;;;20.13;18.00;;;;;;;;;;6192305;23;20384;-77
2023/05/07 12:00:26;;;;;;;22.45;18.88;;;;;;;;;;6168010;23;20381;-76
2023/05/07 12:02:52;;;;;;;21.67;18.88;;;;;;;;;;6165481;23;20373;-76
2023/05/07 12:05:18;;;;;;;21.85;19.40;;;17.50;99.90;;;;;;6214227;23;20460;-76
2023/05/07 12:07:44;;;;;;;22.08;19.10;;;;;;;;;;6191244;23;20513;-75
2023/05/07 12:10:11;;;;;;;22.20;19.00;;;17.60;99.90;;;;;;6191504;23;20447;-77
2023/05/07 12:12:41;;;;;;;20.25;17.95;;;18.00;99.90;;;;;;6217552;23;20376;-76
2023/05/07 12:15:08;;;;;;;19.77;17.67;;;18.50;99.90;;;;;;6215474;23;20369;-76
2023/05/07 12:17:34;;;;;;;19.58;17.48;;;18.40;99.90;;;;;;6212436;23;20374;-76
2023/05/07 12:20:00;;;;;;;19.80;17.70;;;;;;;;;;6216337;23;20362;-75
2023/05/07 12:22:27;;;;;;;20.45;17.35;;;;;;;;;;6188869;23;20370;-76
2023/05/07 12:24:59;;;;;;;19.63;17.60;;;;;;;;;;6244337;23;20405;-78
2023/05/07 12:27:26;;;;;;;20.00;17.90;;;18.50;99.90;;;;;;6217724;23;20447;-78
2023/05/07 12:29:52;;;;;;;19.70;17.63;;;;;;;;;;6192167;23;20400;-77
2023/05/07 12:32:19;;;;;;;19.20;17.20;;;;;;;;;;6216915;23;20366;-78
2023/05/07 12:34:45;;;;;;;18.83;16.83;;;18.30;99.90;;;;;;6166723;23;20405;-77
2023/05/07 12:37:12;;;;;;;20.42;18.00;;;;;;;;;;6190188;23;20361;-76
2023/05/07 12:39:38;;;;;;;19.52;17.42;;;;;;;;;;6214785;23;20373;-76
2023/05/07 12:42:05;;;;;;;17.55;15.73;;;;;;;;;;6242676;23;20680;-78
2023/05/07 12:44:32;;;;;;;20.83;18.67;;;;;;;;;;6241547;23;20389;-78
2023/05/07 12:47:00;;;;;;;19.65;17.55;;;;;;;;;;6190437;23;20440;-79
2023/05/07 12:49:26;;;;;;;19.90;17.80;;;;;;;;;;6239744;23;20350;-79
2023/05/07 12:51:52;;;;;;;18.33;16.30;;;;;;;;;;6214078;23;20970;-79
2023/05/07 12:54:31;;;;;;;18.55;16.58;;;;;;;;;;6190754;23;20574;-80
2023/05/07 12:57:05;;;;;;;19.85;17.90;;;;;;;;;;6190117;23;21225;-79
2023/05/07 12:59:39;;;;;;;17.85;15.95;;;18.60;99.90;;;;;;6187888;23;20386;-79
2023/05/07 13:02:06;;;;;;;18.70;16.40;;;;;;;;;;6189085;23;20370;-79
2023/05/07 13:04:32;;;;;;;17.55;15.73;;;;;;;;;;6213167;23;20390;-80
2023/05/07 13:06:59;;;;;;;18.90;16.45;;;;;;;;;;6216642;23;20445;-79
2023/05/07 13:09:25;;;;;;;18.13;15.82;;;;;;;;;;6214138;23;20786;-79
2023/05/07 13:11:51;;;;;;;18.45;16.55;;;;;;;;;;6214716;23;20445;-79
2023/05/07 13:14:17;;;;;;;20.73;16.10;;;;;;;;;;6239601;23;20689;-79
2023/05/07 13:16:43;;;;;;;18.77;16.88;;;;;;;;;;6164418;23;20385;-79
2023/05/07 13:19:10;;;;;;;19.03;17.20;;;;;;;;;;6214433;23;20428;-79
2023/05/07 13:21:36;;;;;;;18.65;16.75;;;;;;;;;;6190712;23;20366;-80
2023/05/07 13:24:02;;;;;;;18.13;16.20;;;;;;;;;;6165867;23;20390;-78
2023/05/07 13:26:28;;;;;;;17.80;16.00;;;;;;;;;;6214726;23;20417;-78
2023/05/07 13:28:54;;;;;;;21.88;17.05;;;19.00;99.90;;;;;;6189358;23;20366;-77
2023/05/07 13:31:20;;;;;;;18.25;16.35;;;;;;;;;;6188542;23;20366;-78
2023/05/07 13:33:47;;;;;;;19.40;17.48;;;;;;;;;;6191465;23;20901;-78
2023/05/07 13:36:13;;;;;;;18.25;16.35;;;;;;;;;;6190436;23;20362;-78
2023/05/07 13:38:39;;;;;;;18.63;16.63;;;18.80;99.90;;;;;;6215027;23;20445;-78
2023/05/07 13:41:06;;;;;;;19.45;17.38;;;;;;;;;;6187471;23;20370;-78
2023/05/07 13:43:35;;;;;;;19.95;17.35;;;;;;;;;;6188368;23;20436;-79
2023/05/07 13:46:01;;;;;;;20.17;18.17;;;;;;;;;;6166285;23;20419;-80
2023/05/07 13:48:28;;;;;;;19.13;16.98;;;;;;;;;;6189554;23;20397;-78
2023/05/07 13:50:54;;;;;;;19.05;17.15;;;19.10;99.90;;;;;;6189007;23;20420;-78
2023/05/07 13:53:21;;;;;;;19.42;17.42;;;;;;;;;;6163479;23;20463;-78
2023/05/07 13:55:47;;;;;;;18.55;16.52;;;;;;;;;;6187916;23;20370;-78
2023/05/07 13:58:13;;;;;;;19.77;17.67;;;;;;;;;;6215183;23;20521;-79
2023/05/07 14:00:43;;;;;;;20.40;18.23;;;;;;;;;;6167005;23;20459;-79
2023/05/07 14:03:10;;;;;;;19.70;16.90;;;;;;;;;;6187942;23;20390;-79
2023/05/07 14:05:35;;;;;;;18.45;16.50;;;19.40;99.90;;;;;;6213391;23;20391;-78